createdAt,value
2019-06-26T06:54:05.272Z,12.30
2019-06-26T06:56:35.629Z,13.10
2019-06-26T06:59:06.026Z,12.97
2019-06-26T07:01:36.366Z,12.63
2019-06-26T07:04:06.770Z,13.67
2019-06-26T07:06:37.201Z,13.10
2019-06-26T07:09:08.252Z,13.07
2019-06-26T07:11:38.641Z,12.27
2019-06-26T07:14:09.163Z,13.47
2019-06-26T07:16:39.537Z,13.30
2019-06-26T07:19:09.937Z,12.23
2019-06-26T07:21:40.291Z,12.40
2019-06-26T07:24:10.731Z,12.93
2019-06-26T07:26:41.067Z,12.27
2019-06-26T07:29:11.414Z,13.00
2019-06-26T07:31:41.777Z,12.33
2019-06-26T07:34:12.178Z,12.40
2019-06-26T07:36:42.558Z,12.23
2019-06-26T07:39:12.905Z,11.83
2019-06-26T07:41:43.287Z,11.80
2019-06-26T07:44:13.654Z,12.43
2019-06-26T07:46:44.042Z,11.87
2019-06-26T07:49:14.388Z,11.87
2019-06-26T07:51:44.820Z,11.80
2019-06-26T07:54:15.178Z,13.17
2019-06-26T07:56:45.574Z,11.63
2019-06-26T07:59:15.965Z,12.67
2019-06-26T08:01:46.352Z,13.33
2019-06-26T08:04:16.719Z,13.43
2019-06-26T08:06:47.123Z,12.70
2019-06-26T08:09:17.598Z,12.83
2019-06-26T08:11:47.960Z,13.23
2019-06-26T08:14:18.310Z,13.47
2019-06-26T08:16:48.712Z,13.20
2019-06-26T08:19:19.126Z,12.30
2019-06-26T08:21:49.565Z,13.23
2019-06-26T08:24:19.942Z,12.80
2019-06-26T08:26:50.325Z,13.23
2019-06-26T08:29:20.675Z,12.20
2019-06-26T08:31:51.068Z,13.53
2019-06-26T08:34:21.446Z,11.30
2019-06-26T08:36:51.845Z,10.47
2019-06-26T08:39:22.201Z,10.00
2019-06-26T08:41:52.601Z,10.40
2019-06-26T08:44:23.048Z,9.50
2019-06-26T08:46:53.605Z,10.63
2019-06-26T08:49:25.901Z,9.93
2019-06-26T08:51:56.282Z,9.60
2019-06-26T08:54:26.620Z,9.10
2019-06-26T08:56:56.981Z,8.80
2019-06-26T08:59:27.326Z,9.40
2019-06-26T09:01:57.719Z,8.47
2019-06-26T09:04:28.069Z,7.73
2019-06-26T09:06:58.441Z,8.90
2019-06-26T09:09:28.825Z,8.40
2019-06-26T09:11:59.226Z,9.77
2019-06-26T09:14:29.563Z,20.70
2019-06-26T09:16:59.929Z,15.73
2019-06-26T09:19:30.279Z,8.40
2019-06-26T09:22:00.707Z,9.07
2019-06-26T09:24:31.042Z,11.43
2019-06-26T09:27:01.480Z,10.10
2019-06-26T09:29:31.829Z,10.60
2019-06-26T09:32:02.378Z,12.77
2019-06-26T09:34:32.713Z,9.03
2019-06-26T09:37:03.266Z,8.67
2019-06-26T09:39:33.604Z,7.73
2019-06-26T09:42:04.008Z,7.73
2019-06-26T09:44:34.400Z,14.50
2019-06-26T09:47:04.800Z,10.00
2019-06-26T09:49:35.126Z,9.07
2019-06-26T09:52:05.595Z,7.30
2019-06-26T09:54:35.929Z,6.73
2019-06-26T09:57:06.339Z,7.80
2019-06-26T09:59:36.662Z,7.93
2019-06-26T10:02:06.998Z,7.27
2019-06-26T10:04:37.347Z,7.10
2019-06-26T10:07:07.701Z,6.80
2019-06-26T10:09:38.056Z,6.50
2019-06-26T10:12:08.434Z,6.33
2019-06-26T10:14:47.292Z,6.10
2019-06-26T10:17:10.894Z,6.20
2019-06-26T10:19:41.603Z,5.70
2019-06-26T10:22:11.989Z,6.17
2019-06-26T10:24:42.373Z,6.90
2019-06-26T10:27:12.814Z,6.60
2019-06-26T10:29:43.212Z,5.70
2019-06-26T10:32:13.897Z,5.60
2019-06-26T10:34:44.417Z,5.90
2019-06-26T10:37:14.893Z,5.30
2019-06-26T10:39:45.276Z,5.40
2019-06-26T10:42:15.631Z,6.70
2019-06-26T10:44:46.042Z,5.80
2019-06-26T10:47:16.449Z,6.00
2019-06-26T10:49:46.835Z,6.07
2019-06-26T10:52:17.228Z,6.20
2019-06-26T10:54:47.704Z,5.60
2019-06-26T10:57:18.104Z,6.10
2019-06-26T10:59:48.538Z,6.27
2019-06-26T11:02:18.911Z,6.03
2019-06-26T11:04:49.323Z,5.57
2019-06-26T11:07:19.707Z,6.00
2019-06-26T11:09:50.111Z,6.07
2019-06-26T11:12:20.503Z,6.57
2019-06-26T11:14:50.964Z,6.63
2019-06-26T11:17:21.324Z,7.20
2019-06-26T11:19:55.223Z,6.40
2019-06-26T11:22:23.841Z,7.43
2019-06-26T11:24:54.255Z,7.13
2019-06-26T11:27:24.652Z,7.60
2019-06-26T11:29:55.083Z,7.33
2019-06-26T11:32:25.464Z,6.90
2019-06-26T11:34:55.855Z,6.87
2019-06-26T11:37:26.199Z,8.53
2019-06-26T11:39:56.605Z,7.53
2019-06-26T11:42:27.002Z,7.03
2019-06-26T11:44:57.402Z,6.47
2019-06-26T11:47:27.834Z,7.37
2019-06-26T11:50:00.312Z,6.63
2019-06-26T11:52:30.441Z,6.90
2019-06-26T11:55:03.163Z,6.30
2019-06-26T11:57:33.018Z,7.50
2019-06-26T12:00:03.686Z,5.83
2019-06-26T12:02:34.229Z,6.70
2019-06-26T12:05:06.189Z,5.80
2019-06-26T12:07:36.651Z,6.90
2019-06-26T12:10:08.472Z,6.70
2019-06-26T12:12:38.954Z,6.70
2019-06-26T12:15:11.365Z,6.40
2019-06-26T12:17:41.952Z,6.57
2019-06-26T12:20:19.256Z,6.53
2019-06-26T12:22:45.070Z,6.53
2019-06-26T12:25:15.464Z,6.23
2019-06-26T12:27:45.835Z,6.70
2019-06-26T12:30:19.908Z,6.97
2019-06-26T12:33:02.871Z,6.60
2019-06-26T12:35:26.470Z,6.97
2019-06-26T12:37:58.495Z,5.90
2019-06-26T12:40:31.490Z,6.40
2019-06-26T12:43:05.159Z,6.67
2019-06-26T12:45:35.594Z,6.20
2019-06-26T12:48:06.160Z,6.60
2019-06-26T12:50:36.529Z,5.93
2019-06-26T12:53:07.032Z,6.40
2019-06-26T12:55:37.460Z,6.20
2019-06-26T12:58:14.102Z,5.93
2019-06-26T13:00:39.969Z,5.70
2019-06-26T13:03:10.472Z,6.20
2019-06-26T13:05:40.818Z,5.50
2019-06-26T13:08:11.217Z,6.57
2019-06-26T13:10:49.414Z,6.13
2019-06-26T13:13:16.591Z,6.20
2019-06-26T13:15:51.005Z,7.50
2019-06-26T13:18:20.207Z,6.10
2019-06-26T13:20:53.425Z,6.20
2019-06-26T13:23:22.780Z,6.80
2019-06-26T13:25:53.154Z,6.00
2019-06-26T13:28:23.590Z,6.03
2019-06-26T13:30:54.026Z,5.97
2019-06-26T13:33:24.396Z,5.80
2019-06-26T13:35:54.783Z,5.60
2019-06-26T13:38:27.224Z,5.63
2019-06-26T13:40:57.335Z,6.47
2019-06-26T13:43:27.917Z,6.07
2019-06-26T13:45:58.944Z,5.70
2019-06-26T13:48:29.432Z,6.47
2019-06-26T13:51:09.244Z,6.17
2019-06-26T13:53:31.940Z,6.30
2019-06-26T13:56:02.410Z,6.37
2019-06-26T13:58:32.823Z,6.40
2019-06-26T14:01:03.205Z,5.80
2019-06-26T14:03:33.635Z,6.20
2019-06-26T14:06:04.010Z,6.77
2019-06-26T14:08:34.390Z,6.60
2019-06-26T14:11:07.552Z,6.00
2019-06-26T14:13:41.693Z,6.73
2019-06-26T14:16:10.480Z,6.13
2019-06-26T14:18:40.858Z,6.60
2019-06-26T14:21:24.595Z,6.50
2019-06-26T14:23:43.347Z,5.87
2019-06-26T14:26:13.744Z,6.30
2019-06-26T14:28:44.135Z,6.90
2019-06-26T14:31:14.559Z,6.63
2019-06-26T14:33:44.917Z,6.57
2019-06-26T14:36:15.513Z,5.87
2019-06-26T14:38:45.918Z,6.50
2019-06-26T14:41:16.284Z,6.23
2019-06-26T14:43:46.698Z,6.33
2019-06-26T14:46:17.125Z,6.60
2019-06-26T14:48:47.518Z,6.67
2019-06-26T14:51:17.872Z,5.83
2019-06-26T14:53:48.508Z,6.20
2019-06-26T14:56:18.942Z,6.83
2019-06-26T14:58:49.375Z,6.27
2019-06-26T15:01:19.738Z,5.83
2019-06-26T15:03:50.114Z,6.33
2019-06-26T15:06:20.661Z,6.17
2019-06-26T15:08:51.125Z,6.37
2019-06-26T15:11:21.530Z,6.67
2019-06-26T15:13:51.935Z,6.57
2019-06-26T15:16:22.308Z,6.87
2019-06-26T15:18:52.699Z,6.57
2019-06-26T15:21:24.716Z,7.47
2019-06-26T15:23:55.230Z,7.10
2019-06-26T15:26:25.608Z,6.70
2019-06-26T15:28:55.996Z,6.90
2019-06-26T15:31:26.366Z,6.93
2019-06-26T15:33:56.757Z,6.70
2019-06-26T15:36:28.155Z,5.97
2019-06-26T15:38:59.363Z,6.43
2019-06-26T15:41:29.743Z,6.73
2019-06-26T15:44:00.140Z,7.60
2019-06-26T15:46:30.571Z,7.10
2019-06-26T15:49:00.916Z,7.47
2019-06-26T15:51:31.273Z,7.87
2019-06-26T15:54:01.681Z,7.27
2019-06-26T15:56:32.039Z,7.20
2019-06-26T15:59:02.413Z,6.93
2019-06-26T16:01:32.779Z,7.27
2019-06-26T16:04:03.235Z,7.60
2019-06-26T16:06:33.591Z,7.20
2019-06-26T16:09:04.411Z,7.60
2019-06-26T16:11:34.902Z,7.47
2019-06-26T16:14:05.428Z,7.80
2019-06-26T16:16:37.488Z,9.17
2019-06-26T16:19:12.111Z,8.23
2019-06-26T16:21:42.533Z,8.00
2019-06-26T16:24:13.097Z,8.93
2019-06-26T16:26:43.442Z,8.53
2019-06-26T16:29:13.791Z,8.03
2019-06-26T16:31:44.206Z,8.80
2019-06-26T16:34:14.636Z,9.80
2019-06-26T16:36:45.100Z,9.43
2019-06-26T16:39:15.611Z,8.43
2019-06-26T16:41:49.021Z,8.87
2019-06-26T16:44:18.364Z,8.80
2019-06-26T16:46:48.739Z,8.50
2019-06-26T16:49:19.166Z,9.33
2019-06-26T16:51:49.520Z,8.73
2019-06-26T16:54:20.013Z,8.70
2019-06-26T16:56:50.433Z,9.00
2019-06-26T16:59:20.774Z,8.47
2019-06-26T17:01:51.127Z,8.63
2019-06-26T17:04:21.465Z,9.13
2019-06-26T17:06:51.920Z,9.17
2019-06-26T17:09:22.328Z,9.63
2019-06-26T17:11:52.674Z,8.90
2019-06-26T17:14:23.033Z,9.00
2019-06-26T17:16:53.416Z,8.70
2019-06-26T17:19:23.777Z,8.93
2019-06-26T17:21:54.165Z,8.50
2019-06-26T17:24:24.546Z,8.57
2019-06-26T17:26:54.962Z,8.37
2019-06-26T17:29:25.365Z,9.10
2019-06-26T17:31:55.831Z,9.37
2019-06-26T17:34:27.321Z,8.40
2019-06-26T17:36:57.856Z,9.27
2019-06-26T17:39:33.662Z,8.47
2019-06-26T17:42:04.057Z,9.63
2019-06-26T17:44:34.421Z,8.70
2019-06-26T17:47:05.583Z,8.70
2019-06-26T17:49:35.907Z,9.00
2019-06-26T17:52:06.394Z,9.77
2019-06-26T17:54:36.765Z,9.70
2019-06-26T17:57:07.133Z,9.10
2019-06-26T17:59:37.539Z,9.67
2019-06-26T18:02:07.968Z,10.00
2019-06-26T18:04:38.345Z,9.33
2019-06-26T18:07:08.705Z,9.60
2019-06-26T18:09:39.126Z,9.27
2019-06-26T18:12:09.669Z,8.97
2019-06-26T18:14:43.208Z,10.43
2019-06-26T18:17:21.966Z,9.83
2019-06-26T18:19:44.505Z,9.63
2019-06-26T18:22:14.854Z,10.43
2019-06-26T18:24:45.240Z,9.53
2019-06-26T18:27:15.600Z,9.50
2019-06-26T18:29:45.962Z,9.77
2019-06-26T18:32:16.360Z,10.00
2019-06-26T18:34:47.011Z,10.00
2019-06-26T18:37:17.469Z,10.40
2019-06-26T18:39:47.925Z,9.70
2019-06-26T18:42:18.368Z,9.60
2019-06-26T18:44:48.750Z,9.30
2019-06-26T18:47:19.154Z,9.80
2019-06-26T18:49:49.543Z,10.47
2019-06-26T18:52:19.876Z,11.00
2019-06-26T18:54:50.263Z,10.50
2019-06-26T18:57:20.608Z,10.20
2019-06-26T18:59:50.956Z,9.77
2019-06-26T19:02:21.430Z,10.73
2019-06-26T19:04:54.106Z,11.77
2019-06-26T19:07:24.057Z,10.60
2019-06-26T19:09:54.433Z,11.33
2019-06-26T19:12:24.781Z,11.07
2019-06-26T19:14:55.198Z,11.70
2019-06-26T19:17:25.610Z,11.53
2019-06-26T19:19:56.033Z,10.80
2019-06-26T19:22:26.408Z,11.10
2019-06-26T19:24:56.922Z,12.30
2019-06-26T19:27:27.325Z,12.07
2019-06-26T19:29:57.711Z,11.93
2019-06-26T19:32:28.091Z,10.83
2019-06-26T19:35:08.024Z,11.57
2019-06-26T19:37:30.565Z,12.10
2019-06-26T19:40:00.938Z,10.80
2019-06-26T19:42:31.308Z,11.90
2019-06-26T19:45:01.948Z,11.67
2019-06-26T19:47:32.406Z,11.33
2019-06-26T19:50:02.880Z,11.57
2019-06-26T19:52:33.286Z,11.80
2019-06-26T19:55:03.718Z,11.53
2019-06-26T19:57:34.079Z,11.83
2019-06-26T20:00:05.608Z,12.07
2019-06-26T20:02:35.954Z,11.97
2019-06-26T20:05:07.154Z,12.27
2019-06-26T20:07:38.339Z,13.15
2019-06-26T20:10:09.064Z,12.97
2019-06-26T20:12:39.393Z,12.43
2019-06-26T20:15:10.471Z,11.90
2019-06-26T20:17:40.818Z,12.27
2019-06-26T20:20:12.976Z,13.23
2019-06-26T20:22:43.346Z,12.23
2019-06-26T20:25:15.579Z,12.43
2019-06-26T20:27:46.002Z,13.17
2019-06-26T20:30:16.717Z,13.17
2019-06-26T20:32:47.098Z,13.30
2019-06-26T20:35:17.453Z,14.90
2019-06-26T20:37:48.046Z,13.40
2019-06-26T20:40:18.589Z,13.80
2019-06-26T20:42:49.049Z,12.40
2019-06-26T20:45:19.439Z,14.17
2019-06-26T20:47:49.817Z,12.83
2019-06-26T20:50:20.220Z,14.00
2019-06-26T20:52:50.628Z,15.13
2019-06-26T20:55:20.970Z,14.43
2019-06-26T20:57:51.357Z,13.27
2019-06-26T21:00:22.669Z,15.50
2019-06-26T21:02:54.295Z,14.23
2019-06-26T21:05:28.546Z,15.17
2019-06-26T21:07:56.998Z,15.60
2019-06-26T21:10:27.411Z,13.77
2019-06-26T21:12:57.826Z,13.23
2019-06-26T21:15:28.173Z,14.00
2019-06-26T21:17:58.599Z,12.90
2019-06-26T21:20:28.935Z,14.30
2019-06-26T21:22:59.922Z,13.77
2019-06-26T21:25:30.654Z,14.77
2019-06-26T21:28:01.444Z,14.83
2019-06-26T21:30:31.854Z,14.43
2019-06-26T21:33:04.121Z,14.63
2019-06-26T21:35:34.746Z,14.00
2019-06-26T21:38:05.415Z,15.00
2019-06-26T21:40:35.906Z,14.43
2019-06-26T21:43:06.546Z,13.63
2019-06-26T21:45:37.121Z,14.17
2019-06-26T21:48:07.939Z,14.20
2019-06-26T21:50:38.327Z,13.90
2019-06-26T21:53:08.911Z,14.60
2019-06-26T21:55:39.407Z,15.20
2019-06-26T21:58:11.390Z,15.83
2019-06-26T22:00:42.134Z,15.27
2019-06-26T22:03:13.217Z,14.97
2019-06-26T22:05:43.831Z,15.10
2019-06-26T22:08:14.466Z,15.73
2019-06-26T22:10:45.042Z,15.70
2019-06-26T22:13:15.492Z,15.40
2019-06-26T22:15:46.011Z,15.83
2019-06-26T22:18:16.505Z,14.18
2019-06-26T22:20:47.218Z,15.13
2019-06-26T22:23:17.643Z,14.70
2019-06-26T22:25:51.307Z,16.17
2019-06-26T22:28:20.277Z,15.30
2019-06-26T22:30:50.626Z,15.67
2019-06-26T22:33:21.993Z,14.63
2019-06-26T22:35:52.666Z,15.53
2019-06-26T22:38:23.099Z,15.60
2019-06-26T22:40:53.783Z,16.20
2019-06-26T22:43:24.634Z,16.30
2019-06-26T22:45:54.974Z,16.87
2019-06-26T22:48:25.557Z,15.70
2019-06-26T22:50:55.906Z,14.33
2019-06-26T22:53:26.276Z,14.87
2019-06-26T22:56:06.942Z,16.00
2019-06-26T22:58:28.834Z,15.03
2019-06-26T23:00:59.209Z,15.27
2019-06-26T23:03:29.809Z,17.40
2019-06-26T23:06:00.158Z,16.83
2019-06-26T23:08:30.651Z,15.63
2019-06-26T23:11:01.007Z,15.57
2019-06-26T23:13:31.430Z,16.30
2019-06-26T23:16:01.868Z,17.90
2019-06-26T23:18:32.312Z,16.80
2019-06-26T23:21:02.680Z,16.90
2019-06-26T23:23:33.071Z,16.23
2019-06-26T23:26:03.492Z,17.00
2019-06-26T23:28:33.964Z,16.97
2019-06-26T23:31:04.334Z,18.10
2019-06-26T23:33:34.735Z,15.10
2019-06-26T23:36:05.100Z,15.10
2019-06-26T23:38:35.517Z,17.40
2019-06-26T23:41:05.921Z,16.63
2019-06-26T23:43:36.356Z,17.00
2019-06-26T23:46:06.873Z,16.43
2019-06-26T23:48:37.311Z,17.10
2019-06-26T23:51:07.703Z,18.37
2019-06-26T23:53:38.161Z,17.33
2019-06-26T23:56:08.554Z,16.80
2019-06-26T23:58:39.187Z,16.67
